createdAt,value
2018-09-21T04:01:38.293Z,72.70
2018-09-21T04:04:07.037Z,72.90
2018-09-21T04:06:35.262Z,73.10
2018-09-21T04:09:03.855Z,73.60
2018-09-21T04:11:32.071Z,73.40
2018-09-21T04:14:00.244Z,74.20
2018-09-21T04:16:28.421Z,73.60
2018-09-21T04:18:56.597Z,73.80
2018-09-21T04:21:24.788Z,74.10
2018-09-21T04:23:52.978Z,74.20
2018-09-21T04:26:21.193Z,74.00
2018-09-21T04:28:49.356Z,73.80
2018-09-21T04:31:17.551Z,73.60
2018-09-21T04:33:45.782Z,74.00
2018-09-21T04:36:14.015Z,74.10
2018-09-21T04:38:42.151Z,74.10
2018-09-21T04:41:10.343Z,74.50
2018-09-21T04:43:38.513Z,74.70
2018-09-21T04:46:06.716Z,74.50
2018-09-21T04:48:35.016Z,75.10
2018-09-21T04:51:03.173Z,74.30
2018-09-21T04:53:31.367Z,74.70
2018-09-21T04:55:59.597Z,74.90
2018-09-21T04:58:27.753Z,75.00
2018-09-21T05:00:55.905Z,74.70
2018-09-21T05:03:24.073Z,75.00
2018-09-21T05:05:52.277Z,74.70
2018-09-21T05:08:20.451Z,74.80
2018-09-21T05:10:48.647Z,74.40
2018-09-21T05:13:16.822Z,74.60
2018-09-21T05:15:45.029Z,74.30
2018-09-21T05:18:13.188Z,74.10
2018-09-21T05:20:41.425Z,74.00
2018-09-21T05:23:09.677Z,73.80
2018-09-21T05:25:37.849Z,73.30
2018-09-21T05:28:06.077Z,73.40
2018-09-21T05:30:34.243Z,73.20
2018-09-21T05:33:02.450Z,72.90
2018-09-21T05:35:30.654Z,72.70
2018-09-21T05:37:58.860Z,72.30
2018-09-21T05:40:27.024Z,72.10
2018-09-21T05:42:55.218Z,71.70
2018-09-21T05:45:23.417Z,71.50
2018-09-21T05:47:51.579Z,71.30
2018-09-21T05:50:19.754Z,71.10
2018-09-21T05:52:48.005Z,71.20
2018-09-21T05:55:16.844Z,71.00
2018-09-21T05:57:45.046Z,71.10
2018-09-21T06:00:15.298Z,70.80
2018-09-21T06:02:43.677Z,70.90
2018-09-21T06:05:11.870Z,70.70
2018-09-21T06:07:40.082Z,70.70
2018-09-21T06:10:08.258Z,70.30
2018-09-21T06:12:37.083Z,70.10
2018-09-21T06:15:06.216Z,69.80
2018-09-21T06:17:34.406Z,69.70
2018-09-21T06:20:11.935Z,69.70
2018-09-21T06:22:30.777Z,69.20
2018-09-21T06:24:58.956Z,69.20
2018-09-21T06:27:27.146Z,68.90
2018-09-21T06:29:55.337Z,68.10
2018-09-21T06:32:23.510Z,68.10
2018-09-21T06:34:51.736Z,67.80
2018-09-21T06:37:19.930Z,67.80
2018-09-21T06:39:48.293Z,67.50
2018-09-21T06:42:16.565Z,67.40
2018-09-21T06:44:44.741Z,67.50
2018-09-21T06:47:12.926Z,67.20
2018-09-21T06:49:41.112Z,66.70
2018-09-21T06:52:09.273Z,66.50
2018-09-21T06:54:37.466Z,66.10
2018-09-21T06:57:05.767Z,65.50
2018-09-21T06:59:33.993Z,65.10
2018-09-21T07:02:02.188Z,64.90
2018-09-21T07:04:30.442Z,65.10
2018-09-21T07:06:58.633Z,64.60
2018-09-21T07:09:26.804Z,64.30
2018-09-21T07:11:55.022Z,64.60
2018-09-21T07:14:23.182Z,64.50
2018-09-21T07:16:51.338Z,63.90
2018-09-21T07:19:19.550Z,62.90
2018-09-21T07:21:47.715Z,62.90
2018-09-21T07:24:15.900Z,62.80
2018-09-21T07:26:44.037Z,61.70
2018-09-21T07:29:12.218Z,61.60
2018-09-21T07:31:40.394Z,61.50
2018-09-21T07:34:08.591Z,60.80
2018-09-21T07:36:36.767Z,60.70
2018-09-21T07:39:06.154Z,61.20
2018-09-21T07:41:34.332Z,60.80
2018-09-21T07:44:02.509Z,59.30
2018-09-21T07:46:30.700Z,59.10
2018-09-21T07:48:58.922Z,58.40
2018-09-21T07:51:27.063Z,58.10
2018-09-21T07:53:55.234Z,57.80
2018-09-21T07:56:23.400Z,57.20
2018-09-21T07:58:51.921Z,56.70
2018-09-21T08:01:20.115Z,56.10
2018-09-21T08:03:48.597Z,55.50
2018-09-21T08:06:16.786Z,55.30
2018-09-21T08:08:44.977Z,54.30
2018-09-21T08:11:13.184Z,54.00
2018-09-21T08:13:41.357Z,52.70
2018-09-21T08:16:09.507Z,52.10
2018-09-21T08:18:37.706Z,51.70
2018-09-21T08:21:05.897Z,51.90
2018-09-21T08:23:34.084Z,51.00
2018-09-21T08:26:02.293Z,51.20
2018-09-21T08:28:30.496Z,51.00
2018-09-21T08:30:58.670Z,50.50
2018-09-21T08:33:26.833Z,49.90
2018-09-21T08:35:55.069Z,49.80
2018-09-21T08:38:23.256Z,50.60
2018-09-21T08:40:51.433Z,50.30
2018-09-21T08:43:19.624Z,50.70
2018-09-21T08:45:47.808Z,49.00
2018-09-21T08:48:16.032Z,46.80
2018-09-21T08:50:44.259Z,44.20
2018-09-21T08:53:12.435Z,43.80
2018-09-21T08:55:40.626Z,43.70
2018-09-21T08:58:08.798Z,43.90
2018-09-21T09:00:37.005Z,43.00
2018-09-21T09:03:05.211Z,42.00
2018-09-21T09:05:33.392Z,42.20
2018-09-21T09:08:01.729Z,40.30
2018-09-21T09:10:29.897Z,40.60
2018-09-21T09:12:58.349Z,40.30
2018-09-21T09:15:26.549Z,40.00
2018-09-21T09:17:54.733Z,40.00
2018-09-21T09:20:23.181Z,40.20
2018-09-21T09:22:51.371Z,39.90
2018-09-21T09:25:19.679Z,39.60
2018-09-21T09:27:48.222Z,39.30
2018-09-21T09:30:16.398Z,39.80
2018-09-21T09:32:44.577Z,40.00
2018-09-21T09:35:12.839Z,39.00
2018-09-21T09:37:41.063Z,39.00
2018-09-21T09:40:09.259Z,39.50
2018-09-21T09:42:37.676Z,38.90
2018-09-21T09:45:05.890Z,38.80
2018-09-21T09:47:34.081Z,39.00
2018-09-21T09:50:02.370Z,39.40
2018-09-21T09:52:30.542Z,39.10
2018-09-21T09:54:58.819Z,38.80
2018-09-21T09:57:26.961Z,39.30
2018-09-21T09:59:55.114Z,39.20
2018-09-21T10:02:23.347Z,38.70
2018-09-21T10:04:51.590Z,38.70
2018-09-21T10:07:19.776Z,38.50
2018-09-21T10:09:47.937Z,38.70
2018-09-21T10:12:16.113Z,38.10
2018-09-21T10:14:44.276Z,38.30
2018-09-21T10:17:12.446Z,37.90
2018-09-21T10:19:40.602Z,37.70
2018-09-21T10:22:08.862Z,37.10
2018-09-21T10:24:37.041Z,38.00
2018-09-21T10:27:05.410Z,37.40
2018-09-21T10:29:33.573Z,36.70
2018-09-21T10:32:01.766Z,37.50
2018-09-21T10:34:29.933Z,36.50
2018-09-21T10:36:58.160Z,36.20
2018-09-21T10:39:26.328Z,36.50
2018-09-21T10:41:54.502Z,36.30
2018-09-21T10:44:22.677Z,36.20
2018-09-21T10:46:50.964Z,36.70
2018-09-21T10:49:19.100Z,36.10
2018-09-21T10:51:47.286Z,35.70
2018-09-21T10:54:15.447Z,35.30
2018-09-21T10:56:43.633Z,35.30
2018-09-21T10:59:11.900Z,35.20
2018-09-21T11:01:40.081Z,36.00
2018-09-21T11:04:08.224Z,35.80
2018-09-21T11:06:36.461Z,35.90
2018-09-21T11:09:08.151Z,35.60
2018-09-21T11:11:36.325Z,36.00
2018-09-21T11:14:04.503Z,36.80
2018-09-21T11:16:32.702Z,36.30
2018-09-21T11:19:00.905Z,36.30
2018-09-21T11:21:29.505Z,36.70
2018-09-21T11:23:57.665Z,37.10
2018-09-21T11:26:25.825Z,36.60
2018-09-21T11:28:54.229Z,37.30
2018-09-21T11:31:22.406Z,37.20
2018-09-21T11:33:50.585Z,37.10
2018-09-21T11:36:18.753Z,36.90
2018-09-21T11:38:46.929Z,37.10
2018-09-21T11:41:15.101Z,36.90
2018-09-21T11:43:43.285Z,37.00
2018-09-21T11:46:11.676Z,37.00
2018-09-21T11:48:39.797Z,36.80
2018-09-21T11:51:07.967Z,37.20
2018-09-21T11:53:36.117Z,37.10
2018-09-21T11:56:04.349Z,37.30
2018-09-21T11:58:32.526Z,37.00
2018-09-21T12:01:00.734Z,37.50
2018-09-21T12:03:28.909Z,38.10
2018-09-21T12:05:57.086Z,37.80
2018-09-21T12:08:25.245Z,37.30
2018-09-21T12:10:53.409Z,37.70
2018-09-21T12:13:21.563Z,37.40
2018-09-21T12:15:50.038Z,37.50
2018-09-21T12:18:18.187Z,37.30
2018-09-21T12:20:46.387Z,37.10
2018-09-21T12:23:14.582Z,37.10
2018-09-21T12:25:42.758Z,37.10
2018-09-21T12:28:10.914Z,36.60
2018-09-21T12:30:39.158Z,36.00
2018-09-21T12:33:07.315Z,36.10
2018-09-21T12:35:35.513Z,35.20
2018-09-21T12:38:04.042Z,33.90
2018-09-21T12:40:32.203Z,33.20
2018-09-21T12:43:00.373Z,33.50
2018-09-21T12:45:28.663Z,32.60
2018-09-21T12:47:56.825Z,32.30
2018-09-21T12:50:25.033Z,31.80
2018-09-21T12:52:53.228Z,33.00
2018-09-21T12:55:21.448Z,33.70
2018-09-21T12:57:49.654Z,33.00
2018-09-21T13:00:17.950Z,33.30
2018-09-21T13:02:46.193Z,33.00
2018-09-21T13:05:14.349Z,33.10
2018-09-21T13:07:42.519Z,33.00
2018-09-21T13:10:10.768Z,33.40
2018-09-21T13:12:38.921Z,33.40
2018-09-21T13:15:07.174Z,33.80
2018-09-21T13:17:35.339Z,34.80
2018-09-21T13:20:03.615Z,33.60
2018-09-21T13:22:31.793Z,33.80
2018-09-21T13:25:00.033Z,34.20
2018-09-21T13:27:28.202Z,34.00
2018-09-21T13:29:56.718Z,33.80
2018-09-21T13:32:24.970Z,33.60
2018-09-21T13:34:53.073Z,34.20
2018-09-21T13:37:21.278Z,34.80
2018-09-21T13:39:49.871Z,35.00
2018-09-21T13:42:18.981Z,35.60
2018-09-21T13:44:48.129Z,35.20
2018-09-21T13:47:19.099Z,35.00
2018-09-21T13:49:47.289Z,34.90
2018-09-21T13:52:15.486Z,35.00
2018-09-21T13:54:45.239Z,34.40
2018-09-21T13:57:13.672Z,34.60
2018-09-21T13:59:42.089Z,35.60
2018-09-21T14:02:10.317Z,34.80
2018-09-21T14:04:38.498Z,35.20
2018-09-21T14:07:11.774Z,34.60
2018-09-21T14:09:40.355Z,34.60
2018-09-21T14:12:08.531Z,35.30
2018-09-21T14:14:36.753Z,35.00
2018-09-21T14:17:04.906Z,34.90
2018-09-21T14:19:33.083Z,35.10
2018-09-21T14:22:01.349Z,35.50
2018-09-21T14:24:29.533Z,36.00
2018-09-21T14:26:57.726Z,36.50
2018-09-21T14:29:26.000Z,35.30
2018-09-21T14:31:54.177Z,35.60
2018-09-21T14:34:22.396Z,35.80
2018-09-21T14:36:50.589Z,35.40
2018-09-21T14:39:18.785Z,35.80
2018-09-21T14:41:47.051Z,35.40
2018-09-21T14:44:15.247Z,35.80
2018-09-21T14:46:43.605Z,36.40
2018-09-21T14:49:11.806Z,36.50
2018-09-21T14:51:40.249Z,37.20
2018-09-21T14:54:08.870Z,37.90
2018-09-21T14:56:37.081Z,38.40
2018-09-21T14:59:05.336Z,38.70
2018-09-21T15:01:33.645Z,39.00
2018-09-21T15:04:01.982Z,39.10
2018-09-21T15:06:30.161Z,39.60
2018-09-21T15:08:58.490Z,39.30
2018-09-21T15:11:26.649Z,40.10
2018-09-21T15:13:54.825Z,39.40
2018-09-21T15:16:23.194Z,39.00
2018-09-21T15:18:51.434Z,38.40
2018-09-21T15:21:19.590Z,39.60
2018-09-21T15:23:47.787Z,39.20
2018-09-21T15:26:16.018Z,38.70
2018-09-21T15:28:44.309Z,39.50
2018-09-21T15:31:12.560Z,41.20
2018-09-21T15:33:40.753Z,39.00
2018-09-21T15:36:08.937Z,38.80
2018-09-21T15:38:37.133Z,38.50
2018-09-21T15:41:05.318Z,38.30
2018-09-21T15:43:33.577Z,45.80
2018-09-21T15:46:01.705Z,59.40
2018-09-21T15:48:30.106Z,66.70
2018-09-21T15:50:58.390Z,71.80
2018-09-21T15:53:27.616Z,77.00
2018-09-21T15:55:56.738Z,76.70
2018-09-21T15:58:26.248Z,68.80
2018-09-21T16:00:55.504Z,74.00
2018-09-21T16:03:23.845Z,74.80
2018-09-21T16:05:52.198Z,74.00
2018-09-21T16:08:20.705Z,72.30
2018-09-21T16:10:55.700Z,71.00
2018-09-21T16:13:23.989Z,70.10
2018-09-21T16:15:53.271Z,69.60
2018-09-21T16:18:21.490Z,71.00
2018-09-21T16:20:49.817Z,70.10
2018-09-21T16:23:18.073Z,70.50
2018-09-21T16:25:46.303Z,71.10
2018-09-21T16:28:14.624Z,71.60
2018-09-21T16:30:42.842Z,70.10
2018-09-21T16:33:11.102Z,71.40
2018-09-21T16:35:39.601Z,69.50
2018-09-21T16:38:07.927Z,68.40
2018-09-21T16:40:36.314Z,64.30
2018-09-21T16:43:04.553Z,65.10
2018-09-21T16:45:32.894Z,66.70
2018-09-21T16:48:01.512Z,65.70
2018-09-21T16:50:29.922Z,67.20
2018-09-21T16:52:58.262Z,69.00
2018-09-21T16:55:26.562Z,71.50
2018-09-21T16:57:54.806Z,73.40
2018-09-21T17:00:23.256Z,75.40
2018-09-21T17:02:52.031Z,79.30
2018-09-21T17:05:20.441Z,81.50
2018-09-21T17:07:49.605Z,83.90
2018-09-21T17:10:18.231Z,87.90
2018-09-21T17:12:47.423Z,85.90
2018-09-21T17:15:17.755Z,89.00
2018-09-21T17:17:48.608Z,86.40
2018-09-21T17:20:17.069Z,87.90
2018-09-21T17:22:45.415Z,89.80
2018-09-21T17:25:13.634Z,86.30
2018-09-21T17:27:41.919Z,88.10
2018-09-21T17:30:10.223Z,87.40
2018-09-21T17:32:38.800Z,87.60
2018-09-21T17:35:07.367Z,87.50
2018-09-21T17:37:35.744Z,88.40
2018-09-21T17:40:04.003Z,87.00
2018-09-21T17:42:32.386Z,87.50
2018-09-21T17:45:00.754Z,87.00
2018-09-21T17:47:29.072Z,88.40
2018-09-21T17:49:57.595Z,88.30
2018-09-21T17:52:25.914Z,89.50
2018-09-21T17:54:54.423Z,87.50
2018-09-21T17:57:22.817Z,86.20
2018-09-21T17:59:51.146Z,85.60
2018-09-21T18:02:19.464Z,87.20
2018-09-21T18:04:47.952Z,86.40
2018-09-21T18:07:20.448Z,85.10
2018-09-21T18:09:50.221Z,87.10
2018-09-21T18:12:18.710Z,86.60
2018-09-21T18:14:46.999Z,84.20
2018-09-21T18:17:15.291Z,84.50
2018-09-21T18:19:43.660Z,83.90
2018-09-21T18:22:12.537Z,86.20
2018-09-21T18:24:41.250Z,87.10
2018-09-21T18:27:10.246Z,84.90
2018-09-21T18:29:38.751Z,85.40
2018-09-21T18:32:07.231Z,84.80
2018-09-21T18:34:35.444Z,83.70
2018-09-21T18:37:03.616Z,84.00
2018-09-21T18:39:31.862Z,85.30
2018-09-21T18:42:00.078Z,87.70
2018-09-21T18:44:28.388Z,91.20
2018-09-21T18:46:56.703Z,93.70
2018-09-21T18:49:24.936Z,95.10
2018-09-21T18:51:53.187Z,97.10
2018-09-21T18:54:21.450Z,98.50
2018-09-21T18:56:49.738Z,96.80
2018-09-21T18:59:17.909Z,96.30
2018-09-21T19:01:46.181Z,96.10
2018-09-21T19:04:14.571Z,95.30
2018-09-21T19:06:42.813Z,94.80
2018-09-21T19:09:12.173Z,96.40
